Time;durP1;ratioP1;P1;durP2;ratioP2;P2;SDS_P1;SDS_P2;PMS_P1;PMS_P2;Temp;Humidity;BMP_temperature;BMP_pressure;BME280_temperature;BME280_humidity;BME280_pressure;Samples;Min_cycle;Max_cycle;Signal;HPM_P1;HPM_P2
2022/07/15 00:01:58;;;;;;;21.83;3.70;;;;;;;48.59;7.95;100596.00;5043331;28;20048;-61
2022/07/15 00:04:25;;;;;;;26.98;3.85;;;;;;;48.71;7.99;100594.63;5053277;28;20491;-61
2022/07/15 00:06:52;;;;;;;21.13;3.20;;;;;;;48.06;8.11;100588.63;5052290;28;20052;-62
2022/07/15 00:09:19;;;;;;;30.15;3.72;;;;;;;47.87;8.46;100597.09;5038479;28;20499;-61
2022/07/15 00:11:45;;;;;;;21.05;3.28;;;;;;;46.15;9.70;100593.47;5045207;28;20471;-61
2022/07/15 00:14:12;;;;;;;32.88;3.75;;;;;;;47.07;9.41;100576.72;5045286;28;20487;-60
2022/07/15 00:16:39;;;;;;;29.52;3.28;;;;;;;46.24;9.41;100587.50;5037538;28;20028;-61
2022/07/15 00:19:06;;;;;;;13.85;2.17;;;;;;;48.03;7.87;100587.59;5048221;28;20041;-61
2022/07/15 00:21:33;;;;;;;14.40;2.30;;;;;;;47.18;9.49;100577.53;5039906;28;20040;-61
2022/07/15 00:24:00;;;;;;;17.83;2.60;;;;;;;47.63;9.45;100580.38;5042815;28;20037;-61
2022/07/15 00:26:26;;;;;;;14.35;2.50;;;;;;;48.07;9.69;100576.56;5047046;28;20451;-61
2022/07/15 00:28:53;;;;;;;15.63;2.40;;;;;;;46.77;9.95;100576.44;5036508;28;20041;-61
2022/07/15 00:31:20;;;;;;;21.00;2.50;;;;;;;47.03;9.90;100576.97;5047681;28;20478;-61
2022/07/15 00:33:47;;;;;;;13.75;2.38;;;;;;;47.22;9.45;100578.06;5052374;28;20037;-60
2022/07/15 00:36:14;;;;;;;15.05;1.90;;;;;;;47.30;9.93;100589.81;5043649;28;20052;-61
2022/07/15 00:38:41;;;;;;;15.05;2.13;;;;;;;45.98;10.77;100581.09;5044581;28;20044;-62
2022/07/15 00:41:08;;;;;;;14.43;2.13;;;;;;;45.75;11.24;100586.69;5047776;28;20024;-60
2022/07/15 00:43:34;;;;;;;19.38;2.38;;;;;;;46.46;10.95;100583.13;5033205;28;20033;-62
2022/07/15 00:46:01;;;;;;;16.30;2.22;;;;;;;45.72;11.76;100579.13;5044017;28;20472;-64
2022/07/15 00:48:27;;;;;;;19.55;2.40;;;;;;;45.49;12.58;100580.25;5044944;28;20108;-65
2022/07/15 00:50:54;;;;;;;13.45;2.00;;;;;;;43.99;13.52;100586.75;5040602;28;20033;-60
2022/07/15 00:53:22;;;;;;;18.08;2.45;;;;;;;43.28;14.60;100587.97;5037523;28;20477;-63
2022/07/15 00:55:50;;;;;;;16.10;2.50;;;;;;;43.58;13.91;100587.91;5036049;28;20084;-62
2022/07/15 00:58:25;;;;;;;14.48;2.20;;;;;;;44.08;13.73;100587.88;5053834;28;20034;-64
2022/07/15 01:00:54;;;;;;;16.83;2.35;;;;;;;43.98;13.79;100593.72;5055721;28;20045;-63
2022/07/15 01:03:21;;;;;;;21.60;2.53;;;;;;;43.86;14.22;100591.22;5053678;28;20025;-63
2022/07/15 01:05:48;;;;;;;18.92;2.22;;;;;;;44.68;13.13;100592.00;5049510;28;20099;-63
2022/07/15 01:08:17;;;;;;;12.77;2.08;;;;;;;44.58;12.86;100589.31;5038983;28;20026;-62
2022/07/15 01:10:44;;;;;;;12.60;2.08;;;;;;;43.99;12.79;100595.34;5037960;28;20046;-62
2022/07/15 01:13:11;;;;;;;12.98;1.80;;;;;;;44.74;11.51;100596.53;5043467;28;20090;-63
2022/07/15 01:15:40;;;;;;;19.60;2.45;;;;;;;43.79;11.93;100603.09;5039907;28;20392;-64
2022/07/15 01:18:07;;;;;;;14.30;1.77;;;;;;;42.95;12.15;100602.47;5049419;28;20029;-62
2022/07/15 01:20:43;;;;;;;14.32;1.85;;;;;;;43.32;11.60;100604.97;5036490;28;20028;-63
2022/07/15 01:23:12;;;;;;;12.30;1.92;;;;;;;43.09;11.48;100609.47;5038401;28;20029;-62
2022/07/15 01:25:44;;;;;;;22.08;2.28;;;;;;;42.68;10.73;100611.28;5038098;28;20036;-62
2022/07/15 01:28:13;;;;;;;16.30;2.08;;;;;;;42.26;9.96;100620.03;5041493;28;20083;-64
2022/07/15 01:30:40;;;;;;;18.48;2.20;;;;;;;43.27;8.55;100617.06;5037778;28;20384;-64
2022/07/15 01:33:10;;;;;;;19.08;1.90;;;;;;;42.80;9.05;100621.66;5042472;28;20425;-63
2022/07/15 01:35:36;;;;;;;14.07;1.88;;;;;;;43.35;8.59;100610.47;5041233;28;20055;-63
2022/07/15 01:38:03;;;;;;;25.67;2.92;;;;;;;43.19;9.33;100619.53;5049923;28;20115;-64
2022/07/15 01:40:30;;;;;;;21.00;1.80;;;;;;;42.57;10.07;100622.53;5038444;28;20464;-63
2022/07/15 01:42:57;;;;;;;18.88;1.88;;;;;;;41.82;10.92;100623.44;5051864;28;20122;-64
2022/07/15 01:45:24;;;;;;;24.38;2.20;;;;;;;40.81;12.06;100629.38;5042470;28;20017;-62
2022/07/15 01:47:53;;;;;;;14.27;1.90;;;;;;;40.50;12.38;100629.53;5059559;28;20048;-64
2022/07/15 01:50:56;;;;;;;16.85;1.90;;;;;;;40.85;11.92;100635.75;5039467;28;20037;-63
2022/07/15 01:53:24;;;;;;;15.85;1.85;;;;;;;40.90;11.92;100628.59;5043583;28;20395;-63
2022/07/15 01:55:52;;;;;;;24.30;2.25;;;;;;;40.68;11.91;100634.44;5045597;28;20037;-63
2022/07/15 01:58:21;;;;;;;12.82;2.05;;;;;;;40.34;12.57;100636.31;5040673;28;20061;-64
2022/07/15 02:00:49;;;;;;;8.77;1.55;;;;;;;39.99;12.67;100634.97;5029817;28;20029;-64
2022/07/15 02:03:16;;;;;;;12.52;1.70;;;;;;;39.98;12.49;100639.88;5037281;28;20170;-62
2022/07/15 02:05:42;;;;;;;17.20;2.15;;;;;;;39.95;13.17;100640.78;5036737;28;20078;-63
2022/07/15 02:08:10;;;;;;;14.15;2.10;;;;;;;40.00;13.46;100643.03;5053080;28;20377;-62
2022/07/15 02:10:41;;;;;;;12.65;1.67;;;;;;;39.98;13.02;100651.25;5044682;28;20021;-61
2022/07/15 02:13:17;;;;;;;13.20;1.63;;;;;;;39.46;12.54;100640.72;5050788;28;20086;-62
2022/07/15 02:15:48;;;;;;;32.47;2.58;;;;;;;39.37;12.39;100646.38;5038860;28;20045;-62
2022/07/15 02:18:15;;;;;;;11.25;1.40;;;;;;;39.24;11.44;100644.38;5043200;28;20026;-63
2022/07/15 02:20:42;;;;;;;20.10;1.80;;;;;;;39.12;11.37;100648.09;5040452;28;20025;-62
2022/07/15 02:23:09;;;;;;;12.73;1.80;;;;;;;39.08;12.03;100650.28;5037754;28;20029;-61
2022/07/15 02:25:36;;;;;;;21.30;1.80;;;;;;;38.89;11.74;100652.19;5046293;28;20021;-61
2022/07/15 02:28:06;;;;;;;11.25;1.40;;;;;;;38.77;12.12;100660.75;5038485;28;20041;-63
2022/07/15 02:30:35;;;;;;;19.23;1.80;;;;;;;38.63;13.34;100662.03;5037131;28;20128;-64
2022/07/15 02:33:03;;;;;;;23.25;2.00;;;;;;;38.50;14.70;100667.75;5053129;28;20029;-64
2022/07/15 02:35:33;;;;;;;18.25;2.22;;;;;;;38.31;14.68;100663.16;5040546;28;20052;-63
2022/07/15 02:38:01;;;;;;;14.32;1.65;;;;;;;38.10;15.12;100670.31;5036041;28;20030;-64
2022/07/15 02:40:28;;;;;;;11.60;1.67;;;;;;;37.96;15.25;100682.91;5039458;28;20483;-64
2022/07/15 02:42:59;;;;;;;12.18;1.98;;;;;;;37.80;16.93;100671.69;5037654;28;20026;-65
2022/07/15 02:45:29;;;;;;;11.52;2.00;;;;;;;37.61;17.06;100681.19;5036752;28;20060;-64
2022/07/15 02:47:57;;;;;;;21.02;2.65;;;;;;;37.51;17.04;100683.88;5037890;28;20395;-64
2022/07/15 02:50:30;;;;;;;15.60;1.60;;;;;;;37.45;16.25;100674.34;5051523;28;20040;-63
2022/07/15 02:52:57;;;;;;;10.70;1.48;;;;;;;37.31;16.38;100683.28;5041073;28;20033;-64
2022/07/15 02:55:24;;;;;;;31.33;2.83;;;;;;;37.23;17.62;100681.88;5037573;28;20036;-63
2022/07/15 02:57:51;;;;;;;12.70;2.08;;;;;;;37.02;17.43;100691.00;5050634;28;20368;-64
2022/07/15 03:00:19;;;;;;;19.38;2.08;;;;;;;36.91;17.28;100688.44;5051845;28;20460;-63
2022/07/15 03:02:49;;;;;;;12.98;2.08;;;;;;;36.82;17.30;100696.81;5038785;28;20041;-64
2022/07/15 03:05:17;;;;;;;12.32;2.20;;;;;;;36.76;18.25;100709.88;5040154;28;20033;-64
2022/07/15 03:07:45;;;;;;;14.60;2.40;;;;;;;36.66;20.05;100711.75;5052048;28;20479;-65
2022/07/15 03:10:16;;;;;;;15.50;2.20;;;;;;;36.46;21.16;100713.91;5040243;28;20034;-64
2022/07/15 03:12:43;;;;;;;19.33;3.08;;;;;;;36.29;22.34;100708.22;5049336;28;20029;-65
2022/07/15 03:15:13;;;;;;;22.75;3.38;;;;;;;36.15;22.83;100719.09;5036937;28;20479;-65
2022/07/15 03:17:41;;;;;;;16.33;3.35;;;;;;;36.00;23.53;100715.78;5053142;28;20497;-66
2022/07/15 03:20:11;;;;;;;16.38;2.67;;;;;;;35.86;23.32;100714.06;5042737;28;20025;-64
2022/07/15 03:22:43;;;;;;;18.30;3.03;;;;;;;35.88;23.89;100714.44;5049605;28;20101;-64
2022/07/15 03:25:10;;;;;;;18.00;2.72;;;;;;;35.90;24.27;100728.13;5039997;28;20525;-65
2022/07/15 03:27:37;;;;;;;19.85;3.22;;;;;;;35.77;24.10;100730.03;5045854;28;20025;-65
2022/07/15 03:30:07;;;;;;;21.73;3.40;;;;;;;35.81;24.04;100727.91;5044354;28;20033;-64
2022/07/15 03:32:34;;;;;;;19.80;3.33;;;;;;;35.59;24.77;100734.03;5043489;28;20048;-65
2022/07/15 03:35:02;;;;;;;27.63;3.55;;;;;;;35.38;25.43;100731.69;5052416;28;20041;-66
2022/07/15 03:37:32;;;;;;;27.63;3.25;;;;;;;35.37;25.30;100745.00;5052863;28;20033;-64
2022/07/15 03:39:59;;;;;;;19.05;3.42;;;;;;;35.24;25.29;100746.06;5052636;28;20075;-67
2022/07/15 03:42:26;;;;;;;11.63;2.80;;;;;;;35.11;25.25;100746.69;5051974;28;20471;-66
2022/07/15 03:44:53;;;;;;;19.48;2.97;;;;;;;35.01;25.47;100750.53;5053236;28;20037;-66
2022/07/15 03:47:19;;;;;;;16.58;3.50;;;;;;;35.16;25.32;100753.06;5052073;28;20056;-65
2022/07/15 03:49:46;;;;;;;18.25;2.58;;;;;;;35.14;24.73;100764.78;5053124;28;20092;-65
2022/07/15 03:52:14;;;;;;;17.25;3.10;;;;;;;35.07;25.39;100757.25;5050722;28;20364;-64
2022/07/15 03:54:43;;;;;;;16.85;2.72;;;;;;;35.02;25.81;100771.91;5052017;28;20071;-66
2022/07/15 03:57:09;;;;;;;19.98;2.70;;;;;;;34.91;25.92;100773.31;5050960;28;20036;-63
2022/07/15 03:59:36;;;;;;;23.00;2.67;;;;;;;34.79;25.74;100780.31;5052847;28;20376;-65
2022/07/15 04:02:03;;;;;;;20.98;3.22;;;;;;;34.61;26.01;100785.47;5052055;28;20031;-66
2022/07/15 04:04:29;;;;;;;27.65;3.80;;;;;;;34.53;26.22;100791.25;5050296;28;20446;-65
2022/07/15 04:06:57;;;;;;;24.33;3.80;;;;;;;34.54;26.46;100797.69;5050954;28;20119;-66
2022/07/15 04:09:23;;;;;;;22.77;4.38;;;;;;;34.71;26.09;100785.31;5051449;28;20622;-65
2022/07/15 04:11:51;;;;;;;25.25;3.88;;;;;;;34.54;26.21;100798.50;5052868;28;20382;-64
2022/07/15 04:14:19;;;;;;;17.63;3.58;;;;;;;34.57;26.34;100801.69;5052677;28;20094;-64
2022/07/15 04:16:46;;;;;;;31.80;4.60;;;;;;;34.63;25.88;100808.44;5053177;28;20021;-64
2022/07/15 04:19:24;;;;;;;20.83;4.10;;;;;;;34.64;25.83;100813.63;5048016;28;20037;-65
2022/07/15 04:21:56;;;;;;;20.85;3.85;;;;;;;34.47;25.68;100815.53;5048458;28;20116;-65
2022/07/15 04:24:22;;;;;;;27.92;4.13;;;;;;;34.46;25.38;100819.56;5050945;28;20037;-64
2022/07/15 04:26:49;;;;;;;33.70;4.13;;;;;;;34.47;25.00;100815.53;5051206;28;20021;-63
2022/07/15 04:29:17;;;;;;;24.42;3.47;;;;;;;34.39;25.41;100836.63;5051070;28;20057;-65
2022/07/15 04:31:45;;;;;;;32.05;4.45;;;;;;;34.21;24.78;100831.19;5050857;28;20027;-64
2022/07/15 04:34:19;;;;;;;30.27;4.05;;;;;;;34.27;23.36;100839.97;5050502;28;20453;-64
2022/07/15 04:36:47;;;;;;;26.27;4.15;;;;;;;34.17;23.71;100847.38;5049068;28;20042;-65
2022/07/15 04:39:14;;;;;;;21.10;3.75;;;;;;;34.26;23.29;100860.94;5050279;28;20503;-64
2022/07/15 04:41:41;;;;;;;17.10;3.30;;;;;;;34.06;22.48;100862.84;5049532;28;20040;-64
2022/07/15 04:44:08;;;;;;;19.98;3.47;;;;;;;33.98;22.48;100861.34;5049639;28;20040;-66
2022/07/15 04:46:35;;;;;;;17.60;3.03;;;;;;;33.90;22.44;100860.63;5036801;28;20025;-64
2022/07/15 04:52:04;;;;;;;20.30;2.97;;;;;;;34.06;22.59;100874.13;5036442;28;20060;-63
2022/07/15 04:54:34;;;;;;;23.15;3.05;;;;;;;33.87;23.11;100870.72;5048460;28;20033;-65
2022/07/15 04:57:02;;;;;;;21.77;3.05;;;;;;;33.80;23.48;100872.81;5045029;28;20029;-63
2022/07/15 04:59:29;;;;;;;12.95;3.25;;;;;;;33.97;23.81;100868.22;5050433;28;20027;-66
2022/07/15 05:01:55;;;;;;;22.98;3.08;;;;;;;33.77;24.18;100873.66;5047480;28;20041;-65
2022/07/15 05:04:34;;;;;;;21.60;3.13;;;;;;;33.57;24.75;100876.25;5044106;28;20033;-64
2022/07/15 05:07:02;;;;;;;24.05;2.97;;;;;;;33.47;24.39;100880.81;5046809;28;20037;-65
2022/07/15 05:09:32;;;;;;;27.48;3.17;;;;;;;33.48;23.59;100876.75;5045960;28;20021;-64
2022/07/15 05:11:59;;;;;;;38.17;3.78;;;;;;;33.60;22.79;100869.81;5048832;28;20029;-65
2022/07/15 05:14:26;;;;;;;25.13;3.70;;;;;;;33.62;22.47;100878.66;5034680;28;20026;-64
2022/07/15 05:16:53;;;;;;;25.58;3.45;;;;;;;33.42;22.59;100875.63;5048943;28;20045;-63
2022/07/15 05:19:20;;;;;;;27.95;3.28;;;;;;;33.42;22.92;100886.09;5050559;28;20031;-63
2022/07/15 05:21:47;;;;;;;18.75;2.80;;;;;;;33.47;23.03;100880.00;5051067;28;20029;-64
2022/07/15 05:24:13;;;;;;;13.18;2.78;;;;;;;33.43;22.22;100885.69;5039774;28;20036;-63
2022/07/15 05:26:41;;;;;;;21.30;4.95;;;;;;;33.11;22.34;100877.50;5063681;28;20056;-64
2022/07/15 05:29:07;;;;;;;17.20;3.03;;;;;;;33.03;22.87;100884.38;5047672;28;20029;-63
2022/07/15 05:31:35;;;;;;;15.60;2.67;;;;;;;33.06;23.02;100880.75;5037875;28;20395;-65
2022/07/15 05:34:02;;;;;;;16.23;2.88;;;;;;;32.92;23.30;100886.50;5049915;28;20025;-63
2022/07/15 05:36:28;;;;;;;22.23;3.13;;;;;;;32.82;24.33;100887.38;5052023;28;20037;-65
2022/07/15 05:38:57;;;;;;;24.20;3.70;;;;;;;32.98;24.40;100882.00;5048755;28;20081;-64
2022/07/15 05:41:23;;;;;;;18.80;3.65;;;;;;;32.76;25.13;100879.34;5037496;28;20044;-64
2022/07/15 05:43:50;;;;;;;21.65;3.38;;;;;;;32.65;25.10;100883.41;5045697;28;20462;-64
2022/07/15 05:46:17;;;;;;;17.20;4.00;;;;;;;32.57;25.35;100882.69;5047284;28;20041;-63
2022/07/15 05:48:51;;;;;;;18.67;4.10;;;;;;;32.43;25.11;100871.50;5038113;28;20029;-64
2022/07/15 05:51:18;;;;;;;12.80;4.20;;;;;;;32.41;25.10;100871.13;5033468;28;20491;-65
2022/07/15 05:53:45;;;;;;;26.17;5.30;;;;;;;32.33;24.75;100872.38;5043318;28;20021;-64
2022/07/15 05:56:12;;;;;;;18.23;5.57;;;;;;;32.20;25.17;100882.44;5060263;28;20032;-66
2022/07/15 05:58:38;;;;;;;28.40;5.80;;;;;;;32.21;24.53;100881.25;5037133;28;20033;-65
2022/07/15 06:01:06;;;;;;;21.58;5.47;;;;;;;32.10;24.70;100884.09;5054103;28;20029;-64
2022/07/15 06:03:38;;;;;;;22.13;5.88;;;;;;;32.21;24.62;100876.41;5052673;28;20056;-64
2022/07/15 06:06:06;;;;;;;29.27;5.90;;;;;;;32.26;24.55;100867.53;5044386;28;20056;-64
2022/07/15 06:08:35;;;;;;;24.35;6.00;;;;;;;32.16;23.89;100871.22;5049219;28;20024;-65
2022/07/15 06:11:02;;;;;;;18.33;6.15;;;;;;;32.13;23.96;100869.22;5053518;28;20029;-62
2022/07/15 06:13:28;;;;;;;37.40;6.88;;;;;;;32.10;22.97;100868.03;5053695;28;20079;-63
2022/07/15 06:15:55;;;;;;;25.05;5.60;;;;;;;32.07;23.00;100871.66;5053676;28;20125;-63
2022/07/15 06:18:25;;;;;;;18.65;5.68;;;;;;;32.08;22.43;100873.25;5050514;28;20108;-64
2022/07/15 06:20:54;;;;;;;20.85;5.75;;;;;;;32.04;22.70;100874.47;5052634;28;20029;-64
2022/07/15 06:23:21;;;;;;;17.30;4.70;;;;;;;32.14;22.57;100865.22;5051187;28;20501;-66
2022/07/15 06:25:49;;;;;;;22.15;4.88;;;;;;;31.90;23.00;100852.84;5060266;28;20070;-66
2022/07/15 06:28:16;;;;;;;16.27;4.90;;;;;;;32.02;23.90;100872.09;5062151;28;20036;-64
2022/07/15 06:30:44;;;;;;;18.45;5.55;;;;;;;31.83;24.19;100875.38;5060860;28;20468;-64
2022/07/15 06:33:11;;;;;;;21.48;5.22;;;;;;;31.82;24.63;100882.19;5062331;28;20021;-63
2022/07/15 06:35:38;;;;;;;13.98;3.25;;;;;;;32.12;22.75;100876.03;5063843;28;20044;-64
2022/07/15 06:38:04;;;;;;;11.40;3.17;;;;;;;32.03;22.57;100882.13;5059226;28;20467;-62
2022/07/15 06:40:32;;;;;;;18.42;3.15;;;;;;;31.98;22.17;100876.13;5054826;28;20033;-66
2022/07/15 06:42:59;;;;;;;10.23;2.85;;;;;;;31.92;22.23;100881.34;5055324;28;20036;-65
2022/07/15 06:45:46;;;;;;;14.88;2.70;;;;;;;31.85;22.80;100887.00;5051188;28;20044;-64
2022/07/15 06:48:13;;;;;;;10.93;2.55;;;;;;;31.80;22.61;100879.00;5059931;28;20083;-64
2022/07/15 06:50:39;;;;;;;11.20;3.15;;;;;;;31.71;23.32;100884.19;5057908;28;20036;-66
2022/07/15 06:53:06;;;;;;;11.38;2.97;;;;;;;31.44;23.24;100881.06;5067606;28;20029;-67
2022/07/15 06:55:33;;;;;;;12.00;3.08;;;;;;;31.30;23.80;100875.44;5051631;28;20209;-65
2022/07/15 06:58:03;;;;;;;17.80;3.30;;;;;;;31.25;23.70;100882.28;5052864;28;20494;-65
2022/07/15 07:00:33;;;;;;;12.25;3.30;;;;;;;31.14;24.46;100887.06;5051409;28;20041;-65
2022/07/15 07:03:00;;;;;;;10.80;2.85;;;;;;;31.04;25.00;100876.63;5051228;28;20029;-65
2022/07/15 07:05:27;;;;;;;12.40;2.67;;;;;;;30.97;24.90;100878.22;5051103;28;20474;-64
2022/07/15 07:07:54;;;;;;;26.85;9.88;;;;;;;30.87;25.63;100879.00;5052547;28;20060;-64
2022/07/15 07:10:21;;;;;;;21.58;6.95;;;;;;;30.75;26.23;100861.78;5048016;28;20051;-65
2022/07/15 07:12:48;;;;;;;20.80;9.57;;;;;;;30.76;26.70;100883.81;5051614;28;20040;-65
2022/07/15 07:15:15;;;;;;;27.85;7.70;;;;;;;30.64;27.51;100875.78;5052947;28;20423;-65
2022/07/15 07:17:42;;;;;;;22.45;6.05;;;;;;;30.49;28.11;100891.72;5050007;28;20033;-65
2022/07/15 07:20:09;;;;;;;24.63;6.28;;;;;;;30.45;28.45;100884.53;5051679;28;20388;-65
2022/07/15 07:22:36;;;;;;;21.17;5.10;;;;;;;30.47;28.43;100882.13;5052517;28;20029;-64
2022/07/15 07:25:03;;;;;;;14.02;4.68;;;;;;;30.52;28.60;100890.13;5050794;28;20017;-65
2022/07/15 07:27:30;;;;;;;19.58;4.13;;;;;;;30.45;29.22;100890.13;5052277;28;20032;-65
2022/07/15 07:29:56;;;;;;;13.10;3.70;;;;;;;30.44;28.68;100906.16;5052375;28;20529;-64
2022/07/15 07:32:23;;;;;;;16.95;9.52;;;;;;;30.40;29.43;100902.53;5052103;28;20116;-66
2022/07/15 07:34:50;;;;;;;16.02;4.80;;;;;;;30.32;29.27;100898.91;5052507;28;20108;-65
2022/07/15 07:37:16;;;;;;;13.10;4.72;;;;;;;30.28;28.97;100903.69;5052483;28;20028;-66
2022/07/15 07:39:43;;;;;;;22.02;6.20;;;;;;;30.49;29.14;100897.34;4970760;28;2336884;-66
2022/07/15 07:42:11;;;;;;;18.73;6.10;;;;;;;30.59;28.80;100895.78;5053076;28;20033;-66
2022/07/15 07:44:38;;;;;;;30.25;5.85;;;;;;;30.63;29.83;100896.63;5053180;28;20017;-64
2022/07/15 07:47:05;;;;;;;16.83;4.80;;;;;;;30.45;30.93;100887.31;5053651;28;20029;-65
2022/07/15 07:49:31;;;;;;;12.95;4.95;;;;;;;30.35;31.30;100895.31;5047283;28;20464;-64
2022/07/15 07:51:58;;;;;;;19.45;4.93;;;;;;;30.23;31.88;100898.47;5043499;28;20037;-65
2022/07/15 07:54:25;;;;;;;19.23;4.75;;;;;;;30.16;32.25;100900.44;5052511;28;20120;-64
2022/07/15 07:56:52;;;;;;;13.48;3.80;;;;;;;30.15;34.63;100898.81;5052504;28;20049;-65
2022/07/15 07:59:19;;;;;;;13.93;4.00;;;;;;;30.24;36.39;100911.28;5049329;28;20032;-64
2022/07/15 08:01:45;;;;;;;19.63;4.32;;;;;;;30.11;37.30;100903.63;5050690;28;20035;-62
2022/07/15 08:04:13;;;;;;;18.65;4.93;;;;;;;30.02;37.84;100889.94;5043800;28;20025;-63
2022/07/15 08:06:41;;;;;;;14.50;5.40;;;;;;;29.97;38.65;100904.31;5052850;28;20039;-65
2022/07/15 08:09:08;;;;;;;16.33;5.45;;;;;;;29.98;37.52;100894.72;5057628;28;20060;-65
2022/07/15 08:11:34;;;;;;;17.75;5.70;;;;;;;29.86;37.72;100895.06;5053210;28;20036;-65
2022/07/15 08:14:01;;;;;;;15.00;5.13;;;;;;;29.83;37.49;100893.06;5052368;28;20112;-64
2022/07/15 08:16:28;;;;;;;15.98;5.10;;;;;;;29.94;36.61;100896.69;5051401;28;20028;-65
2022/07/15 08:18:54;;;;;;;20.48;5.28;;;;;;;30.03;36.22;100891.56;5053039;28;20064;-65
2022/07/15 08:21:21;;;;;;;10.88;4.30;;;;;;;30.24;37.00;100891.66;5046647;28;20120;-64
2022/07/15 08:23:48;;;;;;;14.13;3.65;;;;;;;30.27;37.75;100885.25;5041222;28;20108;-64
2022/07/15 08:26:22;;;;;;;11.32;4.07;;;;;;;30.36;38.58;100882.91;5040276;28;20034;-64
2022/07/15 08:28:51;;;;;;;14.93;4.90;;;;;;;30.29;39.17;100893.28;5049809;28;20029;-65
2022/07/15 08:31:19;;;;;;;19.88;5.57;;;;;;;30.16;38.91;100892.81;5037885;28;20025;-65
2022/07/15 08:33:46;;;;;;;21.23;5.45;;;;;;;30.06;40.33;100894.41;5052733;28;20028;-65
2022/07/15 08:36:13;;;;;;;79.53;9.80;;;;;;;29.96;43.22;100902.72;5050945;28;20064;-66
2022/07/15 08:38:39;;;;;;;19.83;6.63;;;;;;;30.02;41.70;100901.16;5034965;28;20467;-63
2022/07/15 08:41:06;;;;;;;21.23;6.60;;;;;;;29.81;46.05;100921.47;5049631;28;20029;-67
2022/07/15 08:43:33;;;;;;;15.45;7.55;;;;;;;29.83;43.91;100915.47;5050273;28;20044;-65
2022/07/15 08:46:00;;;;;;;23.88;7.97;;;;;;;29.68;44.26;100909.78;5050163;28;20032;-64
2022/07/15 08:48:31;;;;;;;18.45;6.82;;;;;;;29.69;46.71;100916.97;5050971;28;20143;-66
2022/07/15 08:51:02;;;;;;;15.60;6.95;;;;;;;29.52;47.06;100903.66;5034244;28;20030;-66
2022/07/15 08:53:30;;;;;;;16.77;6.85;;;;;;;29.42;48.29;100918.34;5052622;28;20391;-66
2022/07/15 08:55:58;;;;;;;22.33;7.28;;;;;;;29.38;48.56;100907.13;5032987;28;20060;-66
2022/07/15 08:58:25;;;;;;;21.35;8.55;;;;;;;29.29;49.15;100903.06;5044751;28;20028;-66
2022/07/15 09:00:52;;;;;;;20.10;8.50;;;;;;;29.15;50.12;100904.53;5053231;28;20021;-65
2022/07/15 09:03:19;;;;;;;18.08;7.93;;;;;;;29.06;50.94;100887.25;5053067;28;20059;-64
2022/07/15 09:05:45;;;;;;;21.30;7.60;;;;;;;29.12;50.64;100888.53;5052454;28;20020;-66
2022/07/15 09:08:15;;;;;;;15.52;6.70;;;;;;;29.06;51.06;100884.47;5052627;28;20029;-65
2022/07/15 09:10:50;;;;;;;16.00;5.80;;;;;;;29.03;52.05;100893.63;5053084;28;20022;-64
2022/07/15 09:13:32;;;;;;;16.63;6.13;;;;;;;29.02;52.17;100883.63;5053002;28;20033;-67
2022/07/15 09:16:04;;;;;;;20.25;6.18;;;;;;;28.96;52.83;100893.59;5052756;28;20043;-64
2022/07/15 09:18:39;;;;;;;15.23;5.32;;;;;;;28.96;53.32;100890.78;5052609;28;20560;-64
2022/07/15 09:21:26;;;;;;;18.25;5.90;;;;;;;28.91;54.31;100899.53;5052802;28;20029;-65
2022/07/15 09:23:54;;;;;;;14.82;5.95;;;;;;;28.83;55.36;100890.22;5052748;28;20035;-63
2022/07/15 09:26:37;;;;;;;19.33;6.70;;;;;;;28.84;55.32;100900.22;5052337;28;20037;-65
2022/07/15 09:35:01;;;;;;;17.00;6.40;;;;;;;28.53;56.14;100895.91;5052878;28;20036;-63
2022/07/15 09:37:28;;;;;;;19.83;6.03;;;;;;;28.61;56.71;100890.41;5053057;28;20123;-65
2022/07/15 09:39:56;;;;;;;20.88;5.85;;;;;;;28.70;55.95;100888.09;5051209;28;20491;-65
2022/07/15 09:42:23;;;;;;;19.10;5.68;;;;;;;28.66;57.36;100892.84;5052797;28;20033;-67
2022/07/15 09:44:53;;;;;;;18.25;5.50;;;;;;;28.58;57.64;100884.41;5052847;28;20037;-65
2022/07/15 09:47:22;;;;;;;23.95;5.85;;;;;;;28.55;57.82;100876.78;5052759;28;20037;-65
2022/07/15 09:49:49;;;;;;;19.63;5.88;;;;;;;28.58;58.58;100887.19;5052639;28;20479;-67
2022/07/15 09:52:15;;;;;;;21.27;5.75;;;;;;;28.57;58.69;100888.38;5052656;28;20580;-63
2022/07/15 09:54:45;;;;;;;17.38;5.50;;;;;;;28.54;58.33;100875.13;5052593;28;20032;-64
2022/07/15 09:57:18;;;;;;;20.38;5.72;;;;;;;28.54;58.60;100882.72;5052710;28;20033;-65
2022/07/15 09:59:47;;;;;;;22.75;6.03;;;;;;;28.47;58.45;100891.84;5052696;28;20510;-64
2022/07/15 10:02:14;;;;;;;16.10;4.85;;;;;;;28.35;58.81;100889.31;5052451;28;20036;-66
2022/07/15 10:04:42;;;;;;;17.10;5.07;;;;;;;28.38;60.19;100888.56;5052442;28;20056;-67
2022/07/15 10:07:12;;;;;;;19.73;5.20;;;;;;;28.46;60.37;100895.03;5052663;28;20055;-67
2022/07/15 10:09:41;;;;;;;23.30;5.35;;;;;;;28.42;60.80;100906.19;5052409;28;20037;-67
2022/07/15 10:12:15;;;;;;;21.92;4.70;;;;;;;28.46;62.37;100901.44;5052628;28;20021;-64
2022/07/15 10:15:17;;;;;;;20.17;4.80;;;;;;;28.41;62.75;100909.34;5051208;28;20033;-65
2022/07/15 10:18:02;;;;;;;20.55;4.35;;;;;;;28.36;63.60;100907.69;5040730;28;20053;-65
2022/07/15 10:20:40;;;;;;;25.38;4.57;;;;;;;28.22;63.55;100918.69;5052396;28;20049;-65
2022/07/15 10:23:48;;;;;;;18.77;4.85;;;;;;;28.03;64.62;100914.06;5051224;28;20055;-64
2022/07/15 10:26:18;;;;;;;15.82;4.57;;;;;;;28.07;65.85;100916.88;5052298;28;20445;-64
2022/07/15 10:28:56;;;;;;;23.75;5.35;;;;;;;28.04;65.79;100920.44;5054251;28;20029;-66
2022/07/15 10:31:25;;;;;;;20.20;5.45;;;;;;;28.11;65.80;100917.72;5056106;28;20033;-64
2022/07/15 10:34:19;;;;;;;21.40;5.68;;;;;;;28.05;64.62;100919.25;5056038;28;20017;-64
2022/07/15 10:36:49;;;;;;;22.83;7.75;;;;;;;28.00;65.43;100923.16;5054903;28;20045;-65
2022/07/15 10:39:19;;;;;;;23.25;9.93;;;;;;;27.97;65.36;100913.56;5055731;28;20049;-63
2022/07/15 10:41:59;;;;;;;30.35;9.98;;;;;;;27.87;65.29;100924.59;5054689;28;20499;-65
2022/07/15 10:44:31;;;;;;;25.50;9.60;;;;;;;27.96;66.06;100928.72;5055774;28;20037;-65
2022/07/15 10:47:12;;;;;;;20.35;8.77;;;;;;;27.92;66.26;100939.03;5055955;28;20044;-64
2022/07/15 10:49:44;;;;;;;21.30;9.70;;;;;;;28.02;66.78;100934.78;5055865;28;20547;-64
2022/07/15 10:52:19;;;;;;;24.30;9.50;;;;;;;27.96;66.41;100937.09;5055685;28;20029;-65
2022/07/15 10:54:54;;;;;;;27.23;9.30;;;;;;;28.15;67.66;100929.75;5055503;28;20033;-65
2022/07/15 10:57:41;;;;;;;19.15;8.20;;;;;;;28.05;68.32;100936.03;5055608;28;20127;-65
2022/07/15 11:00:28;;;;;;;21.13;8.02;;;;;;;27.99;68.94;100944.72;5055438;28;20063;-65
2022/07/15 11:03:19;;;;;;;25.33;7.53;;;;;;;27.88;69.72;100942.97;5055406;28;20388;-65
2022/07/15 11:05:49;;;;;;;17.67;6.22;;;;;;;27.82;69.12;100936.88;5055414;28;20040;-64
2022/07/15 11:08:34;;;;;;;17.00;5.65;;;;;;;27.94;71.18;100935.84;5055359;28;20032;-65
2022/07/15 11:11:16;;;;;;;13.77;5.45;;;;;;;28.03;71.60;100928.03;5055225;28;20149;-65
2022/07/15 11:13:45;;;;;;;20.27;5.43;;;;;;;27.87;71.89;100942.16;5055245;28;20396;-65
2022/07/15 11:16:13;;;;;;;22.50;5.85;;;;;;;27.81;71.79;100940.84;5055011;28;20029;-65
2022/07/15 11:18:48;;;;;;;18.90;5.97;;;;;;;27.81;71.87;100949.25;5055261;28;20093;-65
2022/07/15 11:21:15;;;;;;;19.92;6.53;;;;;;;27.72;72.46;100945.13;5055111;28;20067;-65
2022/07/15 11:23:46;;;;;;;17.50;7.25;;;;;;;27.71;71.48;100944.31;5055192;28;20483;-65
2022/07/15 11:26:13;;;;;;;21.48;8.68;;;;;;;27.63;72.40;100948.97;5054997;28;20033;-65
2022/07/15 11:28:58;;;;;;;22.40;8.70;;;;;;;27.54;71.59;100948.41;5054853;28;20021;-65
2022/07/15 11:31:25;;;;;;;24.20;8.82;;;;;;;27.51;70.13;100939.97;5054903;28;20479;-66
2022/07/15 11:33:56;;;;;;;24.90;9.05;;;;;;;27.56;71.41;100943.25;5053892;28;20475;-63
2022/07/15 11:36:23;;;;;;;23.25;8.35;;;;;;;27.62;70.69;100947.31;5054825;28;20048;-64